JAD weather

Perth Jandakot Airport
Perth, Western Australia, Australia

Public forecast

Using degrees Celsius for public forecast. Weather courtesy of forecast.io.

METAR (pilot weather report)

Retrieved 2017/08/17 03:30 UTC (0 seconds ago):

YPJT 170330Z AUTO 36011KT 9999 // BKN058 OVC066 15/08 Q1020

TAF (pilot weather forecast)

Forecast is more than 12 hours old.

Retrieved 2017/08/16 00:00 UTC (1 day ago):

TAF YPJT 162236Z 1700/1718 35010KT 9999 -SHRA BKN030 INTER 1700/1701 6000 SHRA BKN020 INTER 1701/1710 4000 SHRA BKN015